createdAt,value
2019-05-10T00:01:06.073Z,3.75
2019-05-10T00:06:30.097Z,3.75
2019-05-10T00:08:59.500Z,3.60
2019-05-10T00:11:39.857Z,3.80
2019-05-10T00:14:33.829Z,3.77
2019-05-10T00:17:13.783Z,4.22
2019-05-10T00:19:44.286Z,3.80
2019-05-10T00:22:14.790Z,4.15
2019-05-10T00:25:00.810Z,4.35
2019-05-10T00:27:17.797Z,3.50
2019-05-10T00:29:48.237Z,3.85
2019-05-10T00:32:21.049Z,3.67
2019-05-10T00:34:51.596Z,4.00
2019-05-10T00:37:22.100Z,3.87
2019-05-10T00:39:53.531Z,4.03
2019-05-10T00:42:24.765Z,3.77
2019-05-10T00:44:55.263Z,3.85
2019-05-10T00:49:54.575Z,3.95
2019-05-10T00:52:25.020Z,4.17
2019-05-10T00:55:19.096Z,4.25
2019-05-10T00:58:05.672Z,3.90
2019-05-10T01:00:36.546Z,3.65
2019-05-10T01:03:07.100Z,4.33
2019-05-10T01:05:37.502Z,4.35
2019-05-10T01:08:07.939Z,3.65
2019-05-10T01:10:38.349Z,4.15
2019-05-10T01:13:08.972Z,4.42
2019-05-10T01:15:39.407Z,4.25
2019-05-10T01:18:09.792Z,3.58
2019-05-10T01:20:40.117Z,4.25
2019-05-10T01:23:10.566Z,4.22
2019-05-10T01:25:41.045Z,3.85
2019-05-10T01:28:11.498Z,4.15
2019-05-10T01:30:41.861Z,4.20
2019-05-10T01:33:12.324Z,4.00
2019-05-10T01:35:42.740Z,4.12
2019-05-10T01:38:13.199Z,4.15
2019-05-10T01:40:46.552Z,4.58
2019-05-10T01:43:23.139Z,3.87
2019-05-10T01:48:27.158Z,4.83
2019-05-10T01:50:57.583Z,4.33
2019-05-10T01:53:28.112Z,3.83
2019-05-10T01:55:59.682Z,4.03
2019-05-10T01:58:36.216Z,4.30
2019-05-10T02:01:08.287Z,3.85
2019-05-10T02:03:38.757Z,4.00
2019-05-10T02:06:09.258Z,3.90
2019-05-10T02:08:40.738Z,4.35
2019-05-10T02:11:11.222Z,4.17
2019-05-10T02:13:41.593Z,4.50
2019-05-10T02:16:11.987Z,4.90
2019-05-10T02:18:42.377Z,4.40
2019-05-10T02:21:14.797Z,4.50
2019-05-10T02:23:49.608Z,3.75
2019-05-10T02:28:51.029Z,4.58
2019-05-10T02:31:22.126Z,4.08
2019-05-10T02:33:52.564Z,4.75
2019-05-10T02:36:22.977Z,4.45
2019-05-10T02:41:22.421Z,4.35
2019-05-10T02:43:52.822Z,4.20
2019-05-10T02:46:23.413Z,4.00
2019-05-10T02:48:53.991Z,4.70
2019-05-10T02:51:24.337Z,4.53
2019-05-10T02:53:58.599Z,4.33
2019-05-10T02:56:31.336Z,4.28
2019-05-10T02:59:01.297Z,4.70
2019-05-10T03:01:31.904Z,4.12
2019-05-10T03:04:02.639Z,4.40
2019-05-10T03:06:35.921Z,5.17
2019-05-10T03:09:26.479Z,4.05
2019-05-10T03:11:56.895Z,4.58
2019-05-10T03:14:32.776Z,4.53
2019-05-10T03:17:03.241Z,4.15
2019-05-10T03:22:08.707Z,4.87
2019-05-10T03:24:39.231Z,4.25
2019-05-10T03:27:09.683Z,4.75
2019-05-10T03:32:09.055Z,5.00
2019-05-10T03:37:08.017Z,5.05
2019-05-10T03:39:38.392Z,4.87
2019-05-10T03:42:08.857Z,4.97
2019-05-10T03:44:39.326Z,5.00
2019-05-10T03:47:09.706Z,4.65
2019-05-10T03:49:40.201Z,4.75
2019-05-10T03:52:10.586Z,4.58
2019-05-10T03:54:41.104Z,4.90
2019-05-10T03:57:14.168Z,4.87
2019-05-10T03:59:46.613Z,4.87
2019-05-10T04:02:17.042Z,4.47
2019-05-10T04:04:47.586Z,4.50
2019-05-10T04:10:08.359Z,4.22
2019-05-10T04:12:57.583Z,4.75
2019-05-10T04:15:28.000Z,5.58
2019-05-10T04:17:58.450Z,5.00
2019-05-10T04:20:28.814Z,4.55
2019-05-10T04:22:59.192Z,4.72
2019-05-10T04:25:30.504Z,4.50
2019-05-10T04:28:00.905Z,4.97
2019-05-10T04:30:31.966Z,5.17
2019-05-10T04:33:02.391Z,5.00
2019-05-10T04:35:32.674Z,5.10
2019-05-10T04:38:03.065Z,5.10
2019-05-10T04:40:34.505Z,4.80
2019-05-10T04:43:04.964Z,4.62
2019-05-10T04:45:35.492Z,4.75
2019-05-10T04:50:36.150Z,4.83
2019-05-10T04:53:06.706Z,4.80
2019-05-10T04:55:37.260Z,5.10
2019-05-10T04:58:07.003Z,5.05
2019-05-10T05:00:39.751Z,5.08
2019-05-10T05:03:13.325Z,5.05
2019-05-10T05:08:14.577Z,4.87
2019-05-10T05:10:45.027Z,5.08
2019-05-10T05:13:15.428Z,4.80
2019-05-10T05:15:45.785Z,5.22
2019-05-10T05:18:16.097Z,4.78
2019-05-10T05:20:46.493Z,4.90
2019-05-10T05:23:16.818Z,4.75
2019-05-10T05:25:47.195Z,4.92
2019-05-10T05:28:18.403Z,5.58
2019-05-10T05:30:49.670Z,4.90
2019-05-10T05:33:20.149Z,4.90
2019-05-10T05:35:53.656Z,4.47
2019-05-10T05:38:24.026Z,5.00
2019-05-10T05:40:54.365Z,4.90
2019-05-10T05:43:24.839Z,5.35
2019-05-10T05:45:55.230Z,4.92
2019-05-10T05:48:39.454Z,5.40
2019-05-10T05:50:58.272Z,5.60
2019-05-10T05:53:28.751Z,5.50
2019-05-10T05:56:03.666Z,5.58
2019-05-10T05:58:30.049Z,6.22
2019-05-10T06:01:02.856Z,4.95
2019-05-10T06:03:33.579Z,5.30
2019-05-10T06:06:15.506Z,5.20
2019-05-10T06:08:39.073Z,6.05
2019-05-10T06:11:12.096Z,5.92
2019-05-10T06:13:42.451Z,5.60
2019-05-10T06:16:18.240Z,6.72
2019-05-10T06:18:50.026Z,6.42
2019-05-10T06:21:25.116Z,6.12
2019-05-10T06:23:52.553Z,6.83
2019-05-10T06:34:56.779Z,13.15
2019-05-10T06:37:31.469Z,14.58
2019-05-10T06:40:03.621Z,15.55
2019-05-10T06:42:36.035Z,14.13
2019-05-10T06:45:16.042Z,14.18
2019-05-10T06:53:25.976Z,14.05
2019-05-10T07:01:38.307Z,14.05
2019-05-10T07:04:14.914Z,13.68
2019-05-10T07:12:56.800Z,14.15
2019-05-10T07:15:27.199Z,13.45
2019-05-10T07:20:33.820Z,14.38
2019-05-10T07:23:11.771Z,13.20
2019-05-10T07:25:46.743Z,13.40
2019-05-10T07:28:20.055Z,12.85
2019-05-10T07:30:50.943Z,13.18
2019-05-10T07:35:36.959Z,12.03
2019-05-10T07:38:06.787Z,13.10
2019-05-10T07:40:37.234Z,12.47
2019-05-10T07:43:26.602Z,13.72
2019-05-10T07:46:05.629Z,13.22
2019-05-10T07:48:32.153Z,13.72
2019-05-10T07:51:04.400Z,14.87
2019-05-10T07:53:38.097Z,15.63
2019-05-10T07:56:08.783Z,16.30
2019-05-10T07:58:43.443Z,16.77
2019-05-10T08:01:11.465Z,15.75
2019-05-10T08:03:48.131Z,15.90
2019-05-10T08:06:19.670Z,15.48
2019-05-10T08:08:55.309Z,15.20
2019-05-10T08:11:35.776Z,15.88
2019-05-10T08:14:11.056Z,15.80
2019-05-10T08:16:58.360Z,15.63
2019-05-10T08:19:24.338Z,15.48
2019-05-10T08:25:02.312Z,13.60
2019-05-10T08:29:02.045Z,13.18
2019-05-10T08:36:00.940Z,12.00
2019-05-10T08:38:39.833Z,13.08
2019-05-10T08:41:38.257Z,12.70
2019-05-10T08:50:10.921Z,11.70
2019-05-10T08:52:19.407Z,12.15
2019-05-10T08:57:53.731Z,11.90
2019-05-10T09:00:41.451Z,11.60
2019-05-10T09:08:34.599Z,10.90
2019-05-10T09:11:07.182Z,10.40
2019-05-10T09:13:48.999Z,10.63
2019-05-10T09:16:29.175Z,9.98
2019-05-10T09:21:55.963Z,9.73
2019-05-10T09:24:34.997Z,10.20
2019-05-10T09:29:52.893Z,9.53
2019-05-10T09:32:28.951Z,9.73
2019-05-10T09:34:59.682Z,9.20
2019-05-10T09:37:35.444Z,8.75
2019-05-10T09:40:13.283Z,8.53
2019-05-10T09:45:42.371Z,8.75
2019-05-10T09:48:15.001Z,9.28
2019-05-10T09:51:18.974Z,9.68
2019-05-10T09:59:08.074Z,10.08
2019-05-10T10:04:59.284Z,10.00
2019-05-10T10:07:57.838Z,11.10
2019-05-10T10:10:39.251Z,11.22
2019-05-10T10:13:13.938Z,10.63
2019-05-10T10:15:49.479Z,11.00
2019-05-10T10:18:21.254Z,10.70
2019-05-10T10:20:53.270Z,10.82
2019-05-10T10:23:45.195Z,12.18
2019-05-10T10:26:18.657Z,12.10
2019-05-10T10:31:29.661Z,10.50
2019-05-10T10:34:02.506Z,10.32
2019-05-10T10:36:27.552Z,10.75
2019-05-10T10:39:01.177Z,10.35
2019-05-10T10:41:38.547Z,9.78
2019-05-10T10:44:12.476Z,11.53
2019-05-10T10:46:42.324Z,10.75
2019-05-10T10:49:14.628Z,10.28
2019-05-10T10:51:47.323Z,9.95
2019-05-10T10:54:28.586Z,10.50
2019-05-10T10:57:04.012Z,10.55
2019-05-10T10:59:42.931Z,9.23
2019-05-10T11:04:54.742Z,10.43
2019-05-10T11:07:27.761Z,11.40
2019-05-10T11:10:13.380Z,12.30
2019-05-10T11:12:41.075Z,12.30
2019-05-10T11:15:35.952Z,12.65
2019-05-10T11:23:16.392Z,11.97
2019-05-10T11:25:54.676Z,12.50
2019-05-10T11:28:20.683Z,13.78
2019-05-10T11:30:51.509Z,15.30
2019-05-10T11:33:29.679Z,15.72
2019-05-10T11:35:57.617Z,15.78
2019-05-10T11:38:27.195Z,17.92
2019-05-10T11:40:58.133Z,19.40
2019-05-10T11:43:31.177Z,19.37
2019-05-10T11:46:01.039Z,20.25
2019-05-10T11:48:37.322Z,20.05
2019-05-10T11:51:12.259Z,18.75
2019-05-10T11:53:48.835Z,19.32
2019-05-10T11:56:17.452Z,19.10
2019-05-10T11:58:54.904Z,18.82
2019-05-10T12:01:22.473Z,18.12
2019-05-10T12:03:52.986Z,18.27
2019-05-10T12:14:21.964Z,18.70
2019-05-10T12:19:35.694Z,19.48
2019-05-10T12:22:04.677Z,19.32
2019-05-10T12:24:52.475Z,18.82
2019-05-10T12:26:06.272Z,18.10
2019-05-10T12:26:31.279Z,18.70
2019-05-10T12:27:14.540Z,17.87
2019-05-10T12:29:38.647Z,17.27
2019-05-10T12:32:12.759Z,18.10
2019-05-10T12:34:49.165Z,19.17
2019-05-10T12:37:20.222Z,19.77
2019-05-10T12:39:53.194Z,19.32
2019-05-10T12:42:24.783Z,17.75
2019-05-10T12:44:55.977Z,17.77
2019-05-10T12:47:33.794Z,17.07
2019-05-10T12:50:03.702Z,17.77
2019-05-10T12:52:34.484Z,17.12
2019-05-10T12:55:05.115Z,18.12
2019-05-10T12:57:42.934Z,16.62
2019-05-10T13:00:13.327Z,17.73
2019-05-10T13:02:44.793Z,17.17
2019-05-10T13:05:18.181Z,16.32
2019-05-10T13:08:03.290Z,19.98
2019-05-10T13:10:49.430Z,20.92
2019-05-10T13:13:22.422Z,19.45
2019-05-10T13:15:49.824Z,19.98
2019-05-10T13:18:23.106Z,19.25
2019-05-10T13:20:52.731Z,19.00
2019-05-10T13:23:33.596Z,19.42
2019-05-10T13:26:07.973Z,19.02
2019-05-10T13:28:38.654Z,19.23
2019-05-10T13:31:15.994Z,19.40
2019-05-10T13:33:51.540Z,18.73
2019-05-10T13:36:21.080Z,19.62
2019-05-10T13:38:52.042Z,19.70
2019-05-10T13:41:24.015Z,19.40
2019-05-10T13:43:59.042Z,18.37
2019-05-10T13:46:30.097Z,18.23
2019-05-10T13:49:00.519Z,17.40
2019-05-10T13:51:32.079Z,18.57
2019-05-10T13:54:06.001Z,17.87
2019-05-10T13:56:44.995Z,17.62
2019-05-10T13:59:17.780Z,18.02
2019-05-10T14:01:49.364Z,18.45
2019-05-10T14:04:16.299Z,17.10
2019-05-10T14:06:46.894Z,17.60
2019-05-10T14:09:23.073Z,16.42
2019-05-10T14:11:56.387Z,18.30
2019-05-10T14:14:27.031Z,17.23
2019-05-10T14:16:57.319Z,16.10
2019-05-10T14:19:28.011Z,15.83
2019-05-10T14:21:59.469Z,17.45
2019-05-10T14:24:29.884Z,17.85
2019-05-10T14:27:00.285Z,18.80
2019-05-10T14:29:34.153Z,16.25
2019-05-10T14:32:02.836Z,17.85
2019-05-10T14:34:44.507Z,17.35
2019-05-10T14:37:20.001Z,15.78
2019-05-10T14:39:47.720Z,17.55
2019-05-10T14:42:23.957Z,16.80
2019-05-10T14:44:50.168Z,17.00
2019-05-10T14:47:20.596Z,16.40
2019-05-10T14:49:50.953Z,16.50
2019-05-10T14:52:22.665Z,17.23
2019-05-10T14:54:55.421Z,16.65
2019-05-10T14:57:25.309Z,16.32
2019-05-10T14:59:55.679Z,15.65
2019-05-10T15:02:25.991Z,15.28
2019-05-10T15:04:56.546Z,16.67
2019-05-10T15:07:26.925Z,16.70
2019-05-10T15:10:00.408Z,16.52
2019-05-10T15:12:29.511Z,16.80
2019-05-10T15:14:59.870Z,16.55
2019-05-10T15:17:30.655Z,16.48
2019-05-10T15:20:01.099Z,15.70
2019-05-10T15:22:31.589Z,15.65
2019-05-10T15:25:02.984Z,15.63
2019-05-10T15:27:40.922Z,15.72
2019-05-10T15:30:11.207Z,15.15
2019-05-10T15:32:41.531Z,15.32
2019-05-10T15:35:12.118Z,15.05
2019-05-10T15:37:46.137Z,15.38
2019-05-10T15:40:14.636Z,15.10
2019-05-10T15:42:45.047Z,15.90
2019-05-10T15:45:18.898Z,16.62
2019-05-10T15:47:51.264Z,15.55
2019-05-10T15:50:19.267Z,16.00
2019-05-10T15:52:49.740Z,15.75
2019-05-10T15:55:26.783Z,16.80
2019-05-10T15:57:57.610Z,16.30
2019-05-10T16:00:25.454Z,15.08
2019-05-10T16:02:56.645Z,16.97
2019-05-10T16:05:42.407Z,16.55
2019-05-10T16:07:59.394Z,15.45
2019-05-10T16:10:38.780Z,16.50
2019-05-10T16:13:01.891Z,15.43
2019-05-10T16:15:32.271Z,15.28
2019-05-10T16:18:02.692Z,14.18
2019-05-10T16:20:37.379Z,13.03
2019-05-10T16:23:08.749Z,13.40
2019-05-10T16:25:42.906Z,13.05
2019-05-10T16:28:10.285Z,12.25
2019-05-10T16:30:40.607Z,11.95
2019-05-10T16:33:15.890Z,12.45
2019-05-10T16:35:44.183Z,12.50
2019-05-10T16:38:16.653Z,12.03
2019-05-10T16:40:56.803Z,12.70
2019-05-10T16:43:23.943Z,11.10
2019-05-10T16:45:51.299Z,11.65
2019-05-10T16:48:21.740Z,11.38
2019-05-10T16:50:52.222Z,11.60
2019-05-10T16:53:22.714Z,11.95
2019-05-10T16:55:53.141Z,11.20
2019-05-10T16:58:23.611Z,11.18
2019-05-10T17:00:57.095Z,11.35
2019-05-10T17:03:28.752Z,12.45
2019-05-10T17:06:04.072Z,11.33
2019-05-10T17:08:36.959Z,11.20
2019-05-10T17:11:09.502Z,11.25
2019-05-10T17:13:36.282Z,11.50
2019-05-10T17:16:11.520Z,11.95
2019-05-10T17:18:39.125Z,10.90
2019-05-10T17:21:09.556Z,10.98
2019-05-10T17:23:59.062Z,11.10
2019-05-10T17:26:32.631Z,11.50
2019-05-10T17:29:01.583Z,10.80
2019-05-10T17:31:32.068Z,11.80
2019-05-10T17:34:02.494Z,11.93
2019-05-10T17:36:32.846Z,11.35
2019-05-10T17:39:04.281Z,11.10
2019-05-10T17:41:34.766Z,11.48
2019-05-10T17:44:05.249Z,10.48
2019-05-10T17:46:35.727Z,10.68
2019-05-10T17:49:06.327Z,11.05
2019-05-10T17:51:36.841Z,10.80
2019-05-10T17:54:07.263Z,10.75
2019-05-10T17:56:38.842Z,10.78
2019-05-10T17:59:11.796Z,10.82
2019-05-10T18:01:41.824Z,10.88
2019-05-10T18:04:31.377Z,10.53
2019-05-10T18:09:31.128Z,10.90
2019-05-10T18:12:23.068Z,9.93
2019-05-10T18:14:55.897Z,10.72
2019-05-10T18:17:25.859Z,10.23
2019-05-10T18:20:02.223Z,10.45
2019-05-10T18:22:41.800Z,10.98
2019-05-10T18:25:07.009Z,10.35
2019-05-10T18:27:37.484Z,11.15
2019-05-10T18:30:07.006Z,9.93
2019-05-10T18:32:40.833Z,9.98
2019-05-10T18:35:16.638Z,9.75
2019-05-10T18:37:44.573Z,10.30
2019-05-10T18:40:13.739Z,10.58
2019-05-10T18:42:45.259Z,10.55
2019-05-10T18:45:17.378Z,10.75
2019-05-10T18:47:47.864Z,10.43
2019-05-10T18:50:18.210Z,9.75
2019-05-10T18:52:48.737Z,10.25
2019-05-10T18:55:19.131Z,9.75
2019-05-10T18:57:50.897Z,9.93
2019-05-10T19:09:07.792Z,10.03
2019-05-10T19:11:38.903Z,9.70
2019-05-10T19:14:10.620Z,10.08
2019-05-10T19:24:32.319Z,9.60
2019-05-10T19:27:07.467Z,10.15
2019-05-10T19:29:38.758Z,10.20
2019-05-10T19:32:11.651Z,10.18
2019-05-10T19:34:39.161Z,9.33
2019-05-10T19:37:10.520Z,8.75
2019-05-10T19:39:43.812Z,9.33
2019-05-10T19:44:48.982Z,9.68
2019-05-10T19:47:19.966Z,9.43
2019-05-10T19:49:53.445Z,9.78
2019-05-10T19:52:25.848Z,9.58
2019-05-10T19:57:34.895Z,9.70
2019-05-10T20:00:07.025Z,10.65
2019-05-10T20:02:38.967Z,9.93
2019-05-10T20:05:12.013Z,9.73
2019-05-10T20:07:46.093Z,9.68
2019-05-10T20:10:15.971Z,10.00
2019-05-10T20:12:49.775Z,8.98
2019-05-10T20:15:23.966Z,9.70
2019-05-10T20:18:17.005Z,9.75
2019-05-10T20:20:49.809Z,9.80
2019-05-10T20:23:19.559Z,10.05
2019-05-10T20:25:49.991Z,9.00
2019-05-10T20:28:22.062Z,9.83
2019-05-10T20:30:52.417Z,9.88
2019-05-10T20:33:22.906Z,9.75
2019-05-10T20:35:53.303Z,9.20
2019-05-10T20:38:23.767Z,10.00
2019-05-10T20:40:54.209Z,9.98
2019-05-10T20:43:24.609Z,9.50
2019-05-10T20:45:55.125Z,9.75
2019-05-10T20:48:25.630Z,9.13
2019-05-10T20:50:56.045Z,9.73
2019-05-10T20:53:26.599Z,9.58
2019-05-10T20:55:57.042Z,10.55
2019-05-10T20:58:27.542Z,8.95
2019-05-10T21:00:57.924Z,10.25
2019-05-10T21:03:28.469Z,9.48
2019-05-10T21:05:58.914Z,9.50
2019-05-10T21:08:29.292Z,9.33
2019-05-10T21:10:59.673Z,9.73
2019-05-10T21:13:30.215Z,8.88
2019-05-10T21:16:00.769Z,9.63
2019-05-10T21:18:31.266Z,9.75
2019-05-10T21:21:01.708Z,9.83
2019-05-10T21:23:32.029Z,9.53
2019-05-10T21:26:02.575Z,9.38
2019-05-10T21:28:52.169Z,9.90
2019-05-10T21:31:22.652Z,8.83
2019-05-10T21:34:08.244Z,8.68
2019-05-10T21:36:36.876Z,9.13
2019-05-10T21:39:08.112Z,9.10
2019-05-10T21:41:38.567Z,9.10
2019-05-10T21:44:09.026Z,8.75
2019-05-10T21:46:39.472Z,8.78
2019-05-10T21:49:10.042Z,9.00
2019-05-10T21:51:40.441Z,9.10
2019-05-10T21:54:10.900Z,9.45
2019-05-10T21:56:41.296Z,9.23
2019-05-10T21:59:11.764Z,9.20
2019-05-10T22:01:42.261Z,9.18
2019-05-10T22:04:12.698Z,9.28
2019-05-10T22:06:43.305Z,9.55
2019-05-10T22:09:14.816Z,8.98
2019-05-10T22:11:45.311Z,9.50
2019-05-10T22:14:15.763Z,9.03
2019-05-10T22:16:46.400Z,9.13
2019-05-10T22:19:16.813Z,9.23
2019-05-10T22:21:47.315Z,9.50
2019-05-10T22:24:17.724Z,8.83
2019-05-10T22:26:49.264Z,9.23
2019-05-10T22:29:19.692Z,9.18
2019-05-10T22:31:50.220Z,9.83
2019-05-10T22:34:20.636Z,9.38
2019-05-10T22:36:51.106Z,9.73
2019-05-10T22:39:21.528Z,8.83
2019-05-10T22:41:53.151Z,9.85
2019-05-10T22:44:23.856Z,9.20
2019-05-10T22:46:54.267Z,9.33
2019-05-10T22:49:24.695Z,9.00
2019-05-10T22:51:55.297Z,9.70
2019-05-10T22:54:25.894Z,9.43
2019-05-10T22:56:56.227Z,9.58
2019-05-10T22:59:26.760Z,10.15
2019-05-10T23:01:57.337Z,10.20
2019-05-10T23:04:27.799Z,9.85
2019-05-10T23:06:58.280Z,9.48
2019-05-10T23:09:28.647Z,9.48
2019-05-10T23:11:59.118Z,9.43
2019-05-10T23:14:29.533Z,9.93
2019-05-10T23:17:00.999Z,9.78
2019-05-10T23:19:31.327Z,9.75
2019-05-10T23:22:13.910Z,9.43
2019-05-10T23:24:44.303Z,9.28
2019-05-10T23:27:14.803Z,10.08
2019-05-10T23:29:56.920Z,9.93
2019-05-10T23:32:27.536Z,9.75
2019-05-10T23:34:58.049Z,9.70
2019-05-10T23:37:29.623Z,9.48
2019-05-10T23:39:59.974Z,9.55
2019-05-10T23:42:30.412Z,9.43
2019-05-10T23:45:00.887Z,9.28
2019-05-10T23:47:31.407Z,10.00
2019-05-10T23:50:02.818Z,9.88
2019-05-10T23:52:33.284Z,9.70
2019-05-10T23:55:03.572Z,9.70
2019-05-10T23:57:34.066Z,9.30
